createdAt,value
2019-05-16T00:01:31.176Z,60.70
2019-05-16T00:04:02.314Z,60.70
2019-05-16T00:06:32.971Z,60.60
2019-05-16T00:09:04.879Z,60.70
2019-05-16T00:11:34.913Z,60.70
2019-05-16T00:14:05.510Z,61.00
2019-05-16T00:16:37.854Z,60.80
2019-05-16T00:19:09.055Z,60.80
2019-05-16T00:21:39.673Z,60.80
2019-05-16T00:24:09.899Z,60.60
2019-05-16T00:26:40.165Z,60.50
2019-05-16T00:29:11.253Z,60.40
2019-05-16T00:31:41.494Z,60.80
2019-05-16T00:34:11.875Z,60.70
2019-05-16T00:36:42.059Z,60.60
2019-05-16T00:39:12.224Z,60.60
2019-05-16T00:41:42.750Z,60.70
2019-05-16T00:44:12.849Z,60.30
2019-05-16T00:46:42.894Z,60.80
2019-05-16T00:49:13.017Z,61.20
2019-05-16T00:51:43.359Z,61.20
2019-05-16T00:54:13.807Z,61.50
2019-05-16T00:56:45.007Z,61.70
2019-05-16T00:59:18.249Z,61.80
2019-05-16T01:01:50.094Z,62.10
2019-05-16T01:04:22.245Z,62.10
2019-05-16T01:06:52.761Z,62.30
2019-05-16T01:09:23.009Z,62.20
2019-05-16T01:11:53.405Z,62.50
2019-05-16T01:14:23.533Z,62.50
2019-05-16T01:16:54.176Z,62.60
2019-05-16T01:19:24.240Z,62.40
2019-05-16T01:21:54.621Z,62.60
2019-05-16T01:24:25.548Z,62.50
2019-05-16T01:26:57.764Z,62.70
2019-05-16T01:29:28.346Z,63.20
2019-05-16T01:31:59.083Z,62.60
2019-05-16T01:34:29.912Z,62.50
2019-05-16T01:37:00.230Z,62.50
2019-05-16T01:39:30.779Z,62.40
2019-05-16T01:42:00.841Z,62.40
2019-05-16T01:44:31.216Z,62.40
2019-05-16T01:47:01.723Z,62.30
2019-05-16T01:49:31.857Z,61.80
2019-05-16T01:52:02.408Z,61.90
2019-05-16T01:54:32.832Z,61.90
2019-05-16T01:57:02.906Z,62.00
2019-05-16T01:59:32.887Z,62.30
2019-05-16T02:02:02.990Z,61.80
2019-05-16T02:04:33.069Z,61.70
2019-05-16T02:07:03.176Z,61.60
2019-05-16T02:09:33.342Z,61.20
2019-05-16T02:12:03.512Z,61.40
2019-05-16T02:14:35.916Z,62.10
2019-05-16T02:17:08.642Z,62.10
2019-05-16T02:19:38.958Z,62.20
2019-05-16T02:22:09.372Z,62.30
2019-05-16T02:24:39.807Z,62.50
2019-05-16T02:27:09.866Z,62.60
2019-05-16T02:29:40.218Z,62.60
2019-05-16T02:32:11.528Z,62.40
2019-05-16T02:34:42.488Z,62.40
2019-05-16T02:37:24.469Z,62.50
2019-05-16T02:39:44.699Z,62.50
2019-05-16T02:42:14.889Z,63.00
2019-05-16T02:44:44.960Z,63.00
2019-05-16T02:47:15.372Z,63.00
2019-05-16T02:49:45.794Z,63.00
2019-05-16T02:52:15.901Z,63.00
2019-05-16T02:54:45.985Z,62.80
2019-05-16T02:57:16.077Z,62.90
2019-05-16T02:59:46.126Z,63.10
2019-05-16T03:02:16.511Z,63.10
2019-05-16T03:04:46.916Z,62.60
2019-05-16T03:07:36.407Z,62.80
2019-05-16T03:09:51.544Z,62.60
2019-05-16T03:12:25.389Z,62.70
2019-05-16T03:14:56.201Z,62.70
2019-05-16T03:17:31.745Z,62.70
2019-05-16T03:20:02.458Z,62.80
2019-05-16T03:22:33.566Z,62.80
2019-05-16T03:25:04.939Z,63.00
2019-05-16T03:27:35.324Z,62.80
2019-05-16T03:30:06.564Z,62.60
2019-05-16T03:32:37.501Z,62.40
2019-05-16T03:35:14.515Z,62.60
2019-05-16T03:37:53.981Z,62.60
2019-05-16T03:40:15.843Z,62.10
2019-05-16T03:42:46.539Z,61.90
2019-05-16T03:45:16.556Z,61.90
2019-05-16T03:47:46.961Z,62.00
2019-05-16T03:50:17.393Z,62.10
2019-05-16T03:52:50.782Z,62.10
2019-05-16T03:55:21.382Z,61.90
2019-05-16T03:57:51.787Z,62.10
2019-05-16T04:00:45.038Z,62.20
2019-05-16T04:03:11.608Z,62.30
2019-05-16T04:05:42.664Z,61.80
2019-05-16T04:08:19.560Z,61.70
2019-05-16T04:10:44.865Z,61.60
2019-05-16T04:13:15.350Z,61.50
2019-05-16T04:15:45.510Z,61.50
2019-05-16T04:18:15.971Z,61.20
2019-05-16T04:20:46.495Z,61.30
2019-05-16T04:23:16.508Z,61.40
2019-05-16T04:25:46.916Z,61.20
2019-05-16T04:28:16.989Z,61.10
2019-05-16T04:30:50.500Z,60.70
2019-05-16T04:33:22.129Z,60.50
2019-05-16T04:35:53.001Z,60.20
2019-05-16T04:38:34.308Z,60.10
2019-05-16T04:40:56.286Z,59.90
2019-05-16T04:43:26.332Z,59.70
2019-05-16T04:45:56.430Z,59.40
2019-05-16T04:48:26.476Z,59.50
2019-05-16T04:50:56.874Z,58.80
2019-05-16T04:53:27.298Z,59.00
2019-05-16T04:56:01.403Z,58.40
2019-05-16T04:58:31.664Z,58.00
2019-05-16T05:01:03.036Z,58.50
2019-05-16T05:03:33.100Z,58.00
2019-05-16T05:06:03.258Z,57.90
2019-05-16T05:08:49.238Z,57.50
2019-05-16T05:11:06.123Z,57.20
2019-05-16T05:13:36.449Z,56.60
2019-05-16T05:16:06.612Z,56.60
2019-05-16T05:18:37.314Z,56.40
2019-05-16T05:21:07.422Z,56.50
2019-05-16T05:23:40.508Z,56.00
2019-05-16T05:26:10.755Z,56.20
2019-05-16T05:28:41.427Z,56.00
2019-05-16T05:31:11.945Z,55.80
2019-05-16T05:33:43.989Z,56.30
2019-05-16T05:36:14.426Z,56.20
2019-05-16T05:38:46.758Z,56.00
2019-05-16T05:41:16.816Z,55.60
2019-05-16T05:43:47.203Z,55.60
2019-05-16T05:46:20.457Z,55.10
2019-05-16T05:48:50.593Z,54.70
2019-05-16T05:51:20.887Z,55.40
2019-05-16T05:53:51.138Z,54.80
2019-05-16T05:56:22.013Z,54.50
2019-05-16T05:58:52.539Z,55.20
2019-05-16T06:01:22.650Z,54.80
2019-05-16T06:03:52.800Z,55.00
2019-05-16T06:06:23.503Z,54.30
2019-05-16T06:08:53.517Z,54.00
2019-05-16T06:11:23.957Z,53.80
2019-05-16T06:13:55.276Z,53.60
2019-05-16T06:16:25.327Z,54.70
2019-05-16T06:18:56.815Z,54.20
2019-05-16T06:21:27.619Z,53.40
2019-05-16T06:23:59.918Z,53.80
2019-05-16T06:26:30.312Z,53.50
2019-05-16T06:29:00.743Z,52.50
2019-05-16T06:31:31.661Z,52.20
2019-05-16T06:34:07.980Z,51.30
2019-05-16T06:36:33.825Z,50.80
2019-05-16T06:39:06.206Z,50.90
2019-05-16T06:41:36.366Z,49.70
2019-05-16T06:44:06.468Z,50.20
2019-05-16T06:46:43.899Z,49.20
2019-05-16T06:49:10.339Z,48.90
2019-05-16T06:51:42.992Z,48.90
2019-05-16T06:54:13.393Z,49.30
2019-05-16T06:56:43.533Z,48.40
2019-05-16T06:59:13.902Z,48.20
2019-05-16T07:01:44.390Z,48.20
2019-05-16T07:04:15.707Z,48.20
2019-05-16T07:06:58.081Z,48.50
2019-05-16T07:09:17.480Z,48.80
2019-05-16T07:11:50.306Z,48.50
2019-05-16T07:14:22.810Z,48.50
2019-05-16T07:16:52.324Z,48.10
2019-05-16T07:19:22.366Z,47.90
2019-05-16T07:21:53.014Z,47.60
2019-05-16T07:24:23.851Z,47.90
2019-05-16T07:26:54.437Z,46.90
2019-05-16T07:29:24.820Z,46.20
2019-05-16T07:31:54.879Z,45.90
2019-05-16T07:34:25.251Z,45.80
2019-05-16T07:36:55.766Z,46.00
2019-05-16T07:39:25.887Z,45.70
2019-05-16T07:41:56.634Z,44.70
2019-05-16T07:44:26.953Z,44.90
2019-05-16T07:46:57.016Z,44.90
2019-05-16T07:49:27.412Z,44.20
2019-05-16T07:52:00.416Z,43.90
2019-05-16T07:54:34.124Z,43.50
2019-05-16T07:57:16.058Z,43.90
2019-05-16T07:59:33.514Z,44.40
2019-05-16T08:02:03.681Z,46.20
2019-05-16T08:04:34.062Z,49.40
2019-05-16T08:07:05.806Z,52.60
2019-05-16T08:09:37.011Z,53.40
2019-05-16T08:12:07.052Z,53.10
2019-05-16T08:14:37.215Z,51.80
2019-05-16T08:17:10.448Z,50.80
2019-05-16T08:19:40.212Z,50.30
2019-05-16T08:22:11.229Z,48.60
2019-05-16T08:24:41.674Z,47.90
2019-05-16T08:27:12.348Z,47.30
2019-05-16T08:29:42.926Z,49.30
2019-05-16T08:32:13.454Z,49.50
2019-05-16T08:34:43.906Z,48.40
2019-05-16T08:37:33.898Z,48.00
2019-05-16T08:39:46.114Z,48.50
2019-05-16T08:42:16.623Z,47.00
2019-05-16T08:44:47.176Z,46.30
2019-05-16T08:47:21.071Z,46.60
2019-05-16T08:49:52.147Z,45.50
2019-05-16T08:54:53.519Z,45.00
2019-05-16T08:57:31.204Z,45.40
2019-05-16T08:59:55.767Z,45.40
2019-05-16T09:05:04.371Z,46.60
2019-05-16T09:07:31.826Z,46.40
2019-05-16T09:10:02.175Z,46.00
2019-05-16T09:10:32.872Z,46.30
2019-05-16T09:12:32.330Z,46.00
2019-05-16T09:15:02.392Z,46.20
2019-05-16T09:17:32.824Z,46.70
2019-05-16T09:18:30.746Z,45.60
2019-05-16T09:20:02.889Z,46.80
2019-05-16T09:22:32.970Z,47.30
2019-05-16T09:25:08.061Z,46.60
2019-05-16T09:27:38.691Z,47.80
2019-05-16T09:30:09.539Z,47.50
2019-05-16T09:32:42.819Z,49.70
2019-05-16T09:35:12.132Z,52.50
2019-05-16T09:37:42.298Z,53.30
2019-05-16T09:40:12.409Z,52.30
2019-05-16T09:42:43.364Z,53.20
2019-05-16T09:45:16.973Z,52.80
2019-05-16T09:47:48.214Z,51.60
2019-05-16T09:50:18.034Z,51.80
2019-05-16T09:52:49.383Z,51.50
2019-05-16T09:55:19.985Z,51.50
2019-05-16T09:57:50.542Z,51.70
2019-05-16T10:00:23.706Z,51.60
2019-05-16T10:02:57.774Z,50.90
2019-05-16T10:05:26.878Z,50.70
2019-05-16T10:07:57.581Z,50.20
2019-05-16T10:10:27.886Z,51.90
2019-05-16T10:12:58.295Z,53.10
2019-05-16T10:15:28.462Z,52.10
2019-05-16T10:17:58.948Z,51.90
2019-05-16T10:20:29.410Z,55.00
2019-05-16T10:23:00.169Z,51.40
2019-05-16T10:25:30.677Z,50.60
2019-05-16T10:28:01.250Z,51.20
2019-05-16T10:30:32.343Z,52.50
2019-05-16T10:33:02.491Z,51.50
2019-05-16T10:35:32.534Z,52.40
2019-05-16T10:38:03.032Z,52.10
2019-05-16T10:40:36.860Z,52.40
2019-05-16T10:43:07.508Z,53.40
2019-05-16T10:45:38.098Z,52.80
2019-05-16T10:48:09.021Z,52.20
2019-05-16T10:50:39.249Z,54.30
2019-05-16T10:53:32.533Z,54.60
2019-05-16T10:55:41.194Z,53.90
2019-05-16T10:58:11.759Z,54.00
2019-05-16T11:01:07.887Z,55.90
2019-05-16T11:03:17.098Z,56.50
2019-05-16T11:06:01.682Z,58.10
2019-05-16T11:08:19.735Z,58.10
2019-05-16T11:10:50.326Z,61.10
2019-05-16T11:13:20.760Z,63.10
2019-05-16T11:15:51.197Z,66.50
2019-05-16T11:18:21.350Z,66.90
2019-05-16T11:20:51.963Z,67.70
2019-05-16T11:23:23.763Z,67.90
2019-05-16T11:25:55.492Z,69.50
2019-05-16T11:28:26.935Z,73.70
2019-05-16T11:31:03.105Z,71.80
2019-05-16T11:33:29.394Z,72.90
2019-05-16T11:35:59.882Z,75.50
2019-05-16T11:38:30.317Z,76.70
2019-05-16T11:41:01.042Z,78.40
2019-05-16T11:43:31.173Z,78.70
2019-05-16T11:46:01.524Z,81.70
2019-05-16T11:48:31.904Z,91.80
2019-05-16T11:51:02.275Z,92.70
2019-05-16T11:53:32.406Z,96.10
2019-05-16T11:56:02.467Z,98.40
2019-05-16T11:58:34.000Z,97.60
2019-05-16T12:01:07.288Z,98.60
2019-05-16T12:03:37.364Z,96.70
2019-05-16T12:06:10.239Z,96.80
2019-05-16T12:08:39.873Z,98.70
2019-05-16T12:11:10.035Z,99.90
2019-05-16T12:13:40.790Z,91.10
2019-05-16T12:16:10.885Z,91.70
2019-05-16T12:18:41.261Z,90.20
2019-05-16T12:21:11.350Z,92.10
2019-05-16T12:23:41.701Z,95.00
2019-05-16T12:26:12.184Z,94.80
2019-05-16T12:28:42.581Z,99.00
2019-05-16T12:31:13.198Z,99.90
2019-05-16T12:33:43.714Z,99.90
2019-05-16T12:36:14.561Z,99.90
2019-05-16T12:38:46.745Z,99.90
2019-05-16T12:41:17.066Z,99.90
2019-05-16T12:43:53.456Z,99.90
2019-05-16T12:46:21.278Z,99.90
2019-05-16T12:48:51.941Z,99.90
2019-05-16T12:51:21.987Z,99.90
2019-05-16T12:53:52.123Z,99.90
2019-05-16T12:56:22.157Z,99.90
2019-05-16T12:58:52.211Z,99.90
2019-05-16T13:01:30.774Z,99.90
2019-05-16T13:03:54.282Z,99.90
2019-05-16T13:06:24.472Z,99.90
2019-05-16T13:08:54.504Z,99.90
2019-05-16T13:11:26.999Z,99.90
2019-05-16T13:14:05.728Z,99.90
2019-05-16T13:16:29.674Z,99.90
2019-05-16T13:18:59.862Z,99.90
2019-05-16T13:21:30.044Z,99.90
2019-05-16T13:24:00.544Z,99.90
2019-05-16T13:26:30.975Z,99.90
2019-05-16T13:29:01.370Z,99.90
2019-05-16T13:31:31.454Z,95.90
2019-05-16T13:34:01.582Z,98.20
2019-05-16T13:36:32.068Z,97.20
2019-05-16T13:39:02.465Z,96.80
2019-05-16T13:41:34.439Z,99.90
2019-05-16T13:44:17.648Z,99.90
2019-05-16T13:46:37.336Z,99.90
2019-05-16T13:49:07.560Z,99.90
2019-05-16T13:51:38.014Z,99.20
2019-05-16T13:54:08.164Z,99.90
2019-05-16T13:56:38.181Z,99.90
2019-05-16T13:59:09.655Z,99.90
2019-05-16T14:01:39.771Z,99.90
2019-05-16T14:04:10.238Z,99.90
2019-05-16T14:06:41.759Z,99.90
2019-05-16T14:09:12.867Z,99.90
2019-05-16T14:11:42.997Z,99.90
2019-05-16T14:14:13.583Z,99.90
2019-05-16T14:16:43.735Z,99.90
2019-05-16T14:19:13.841Z,99.90
2019-05-16T14:21:47.578Z,99.90
2019-05-16T14:24:18.170Z,99.90
2019-05-16T14:26:48.606Z,99.90
2019-05-16T14:29:19.210Z,99.90
2019-05-16T14:31:49.775Z,99.90
2019-05-16T14:34:19.911Z,99.90
2019-05-16T14:36:50.403Z,99.90
2019-05-16T14:39:20.626Z,99.90
2019-05-16T14:41:50.675Z,99.90
2019-05-16T14:44:21.273Z,99.90
2019-05-16T14:46:52.107Z,99.90
2019-05-16T14:49:24.179Z,99.90
2019-05-16T14:51:57.863Z,99.90
2019-05-16T14:54:26.951Z,99.90
2019-05-16T14:57:01.144Z,99.90
2019-05-16T14:59:30.876Z,99.90
2019-05-16T15:02:01.014Z,99.90
2019-05-16T15:04:31.129Z,99.90
2019-05-16T15:07:02.415Z,98.80
2019-05-16T15:09:32.887Z,98.10
2019-05-16T15:12:03.394Z,99.90
2019-05-16T15:14:33.436Z,99.90
2019-05-16T15:17:03.481Z,99.90
2019-05-16T15:19:34.070Z,98.50
2019-05-16T15:22:04.158Z,99.20
2019-05-16T15:24:36.901Z,99.10
2019-05-16T15:27:08.262Z,93.70
2019-05-16T15:29:38.278Z,95.00
2019-05-16T15:32:09.410Z,99.00
2019-05-16T15:34:39.613Z,95.10
2019-05-16T15:37:10.483Z,95.90
2019-05-16T15:39:41.312Z,94.30
2019-05-16T15:42:11.857Z,88.80
2019-05-16T15:44:42.281Z,92.40
2019-05-16T15:47:13.007Z,95.50
2019-05-16T15:49:43.323Z,91.40
2019-05-16T15:52:13.393Z,93.50
2019-05-16T15:54:44.124Z,90.70
2019-05-16T15:57:17.456Z,89.60
2019-05-16T15:59:47.033Z,89.90
2019-05-16T16:02:17.718Z,91.70
2019-05-16T16:04:47.907Z,92.40
2019-05-16T16:07:18.339Z,91.90
2019-05-16T16:09:48.781Z,90.60
2019-05-16T16:12:18.922Z,92.10
2019-05-16T16:14:49.342Z,90.30
2019-05-16T16:17:19.409Z,91.80
2019-05-16T16:19:49.461Z,94.20
2019-05-16T16:22:19.903Z,93.30
2019-05-16T16:24:50.337Z,95.80
2019-05-16T16:27:20.849Z,92.50
2019-05-16T16:29:51.388Z,94.70
2019-05-16T16:32:22.562Z,92.50
2019-05-16T16:34:52.708Z,94.00
2019-05-16T16:37:22.760Z,94.80
2019-05-16T16:39:53.149Z,93.10
2019-05-16T16:42:27.095Z,95.40
2019-05-16T16:44:56.649Z,94.20
2019-05-16T16:47:27.016Z,93.90
2019-05-16T16:49:59.273Z,92.90
2019-05-16T16:52:29.066Z,91.00
2019-05-16T16:54:59.557Z,92.90
2019-05-16T16:57:30.041Z,94.80
2019-05-16T17:00:00.132Z,93.10
2019-05-16T17:02:30.382Z,92.60
2019-05-16T17:05:02.734Z,92.70
2019-05-16T17:07:37.007Z,93.10
2019-05-16T17:10:07.926Z,93.00
2019-05-16T17:12:42.525Z,93.00
2019-05-16T17:15:10.785Z,94.70
2019-05-16T17:17:41.232Z,95.50
2019-05-16T17:20:11.553Z,94.80
2019-05-16T17:22:41.654Z,95.00
2019-05-16T17:25:13.677Z,95.80
2019-05-16T17:27:46.671Z,96.00
2019-05-16T17:30:18.382Z,95.90
2019-05-16T17:32:50.306Z,94.70
2019-05-16T17:35:20.776Z,93.90
2019-05-16T17:37:50.891Z,92.50
2019-05-16T17:40:21.100Z,92.50
2019-05-16T17:42:51.610Z,92.50
2019-05-16T17:45:26.576Z,92.30
2019-05-16T17:47:57.165Z,93.40
2019-05-16T17:50:27.244Z,94.10
2019-05-16T17:52:57.849Z,94.10
2019-05-16T17:55:28.494Z,93.30
2019-05-16T17:58:00.516Z,91.70
2019-05-16T18:00:31.030Z,92.10
2019-05-16T18:03:01.936Z,93.10
2019-05-16T18:05:32.093Z,94.40
2019-05-16T18:08:02.763Z,95.10
2019-05-16T18:10:32.882Z,95.80
2019-05-16T18:13:03.304Z,96.50
2019-05-16T18:15:33.470Z,97.00
2019-05-16T18:18:03.589Z,97.10
2019-05-16T18:20:33.775Z,96.30
2019-05-16T18:23:06.750Z,96.80
2019-05-16T18:25:36.830Z,96.70
2019-05-16T18:28:08.319Z,96.80
2019-05-16T18:30:38.375Z,99.20
2019-05-16T18:33:08.922Z,99.90
2019-05-16T18:35:39.030Z,99.90
2019-05-16T18:38:09.382Z,99.90
2019-05-16T18:40:39.819Z,99.90
2019-05-16T18:43:09.909Z,99.90
2019-05-16T18:45:40.411Z,99.90
2019-05-16T18:48:10.863Z,99.90
2019-05-16T18:50:41.324Z,99.90
2019-05-16T18:53:12.656Z,99.90
2019-05-16T18:55:42.809Z,99.90
2019-05-16T18:58:12.861Z,99.90
2019-05-16T19:00:43.435Z,99.90
2019-05-16T19:03:13.526Z,99.90
2019-05-16T19:05:46.200Z,99.90
2019-05-16T19:08:16.770Z,99.90
2019-05-16T19:10:47.412Z,99.90
2019-05-16T19:13:17.772Z,99.90
2019-05-16T19:15:49.348Z,99.90
2019-05-16T19:18:19.908Z,99.90
2019-05-16T19:20:49.987Z,99.90
2019-05-16T19:23:20.346Z,99.90
2019-05-16T19:25:50.899Z,99.90
2019-05-16T19:28:20.909Z,99.90
2019-05-16T19:30:52.248Z,99.90
2019-05-16T19:33:22.334Z,99.90
2019-05-16T19:35:52.359Z,99.90
2019-05-16T19:38:22.814Z,99.90
2019-05-16T19:40:52.987Z,99.90
2019-05-16T19:43:23.659Z,99.90
2019-05-16T19:45:54.115Z,99.90
2019-05-16T19:48:26.519Z,99.90
2019-05-16T19:50:56.936Z,99.90
2019-05-16T19:53:27.381Z,99.90
2019-05-16T19:55:58.491Z,99.90
2019-05-16T19:58:31.074Z,99.90
2019-05-16T20:01:01.065Z,99.90
2019-05-16T20:03:31.147Z,99.90
2019-05-16T20:06:01.512Z,99.90
2019-05-16T20:08:31.519Z,99.90
2019-05-16T20:11:01.732Z,99.90
2019-05-16T20:13:32.167Z,99.90
2019-05-16T20:16:02.570Z,99.90
2019-05-16T20:18:32.588Z,99.90
2019-05-16T20:21:02.699Z,99.90
2019-05-16T20:23:32.799Z,99.90
2019-05-16T20:26:03.208Z,99.90
2019-05-16T20:28:33.225Z,99.90
2019-05-16T20:31:03.717Z,99.90
2019-05-16T20:33:33.784Z,99.90
2019-05-16T20:36:03.851Z,99.90
2019-05-16T20:38:33.939Z,99.90
2019-05-16T20:41:03.969Z,99.90
2019-05-16T20:43:34.078Z,99.90
2019-05-16T20:46:04.371Z,99.90
2019-05-16T20:48:36.739Z,99.90
2019-05-16T20:51:07.219Z,99.90
2019-05-16T20:53:37.851Z,99.90
2019-05-16T20:56:07.964Z,99.90
2019-05-16T20:58:38.276Z,99.90
2019-05-16T21:01:08.350Z,99.90
2019-05-16T21:03:38.491Z,99.90
2019-05-16T21:06:09.070Z,99.90
2019-05-16T21:08:39.177Z,99.90
2019-05-16T21:11:09.635Z,99.90
2019-05-16T21:13:40.349Z,99.90
2019-05-16T21:16:10.402Z,99.90
2019-05-16T21:18:40.476Z,99.90
2019-05-16T21:21:10.932Z,99.90
2019-05-16T21:23:41.043Z,99.90
2019-05-16T21:26:11.426Z,99.90
2019-05-16T21:28:41.462Z,99.90
2019-05-16T21:31:11.482Z,99.90
2019-05-16T21:33:41.558Z,99.90
2019-05-16T21:36:12.300Z,99.90
2019-05-16T21:38:42.678Z,99.90
2019-05-16T21:41:12.776Z,99.90
2019-05-16T21:43:43.487Z,99.90
2019-05-16T21:46:14.258Z,99.90
2019-05-16T21:48:44.583Z,99.90
2019-05-16T21:51:19.418Z,99.90
2019-05-16T21:53:47.316Z,99.90
2019-05-16T21:56:17.776Z,99.90
2019-05-16T21:58:48.255Z,99.90
2019-05-16T22:01:21.522Z,99.90
2019-05-16T22:03:52.392Z,99.90
2019-05-16T22:06:22.448Z,99.90
2019-05-16T22:08:53.133Z,99.90
2019-05-16T22:11:23.502Z,99.90
2019-05-16T22:13:57.056Z,99.90
2019-05-16T22:16:28.458Z,99.90
2019-05-16T22:18:58.820Z,99.90
2019-05-16T22:21:29.160Z,99.90
2019-05-16T22:23:59.999Z,99.90
2019-05-16T22:26:30.308Z,99.90
2019-05-16T22:29:00.679Z,99.90
2019-05-16T22:31:30.814Z,99.90
2019-05-16T22:34:00.886Z,99.90
2019-05-16T22:36:31.435Z,99.90
2019-05-16T22:39:01.527Z,99.90
2019-05-16T22:41:33.415Z,99.90
2019-05-16T22:44:03.822Z,99.90
2019-05-16T22:46:34.478Z,99.90
2019-05-16T22:49:04.514Z,99.90
2019-05-16T22:51:36.597Z,99.90
2019-05-16T22:54:07.703Z,99.90
2019-05-16T22:56:38.318Z,99.90
2019-05-16T22:59:08.446Z,99.90
2019-05-16T23:01:38.887Z,99.90
2019-05-16T23:04:09.010Z,99.90
2019-05-16T23:06:39.414Z,99.90
2019-05-16T23:09:09.630Z,99.90
2019-05-16T23:11:39.748Z,99.90
2019-05-16T23:14:09.901Z,99.90
2019-05-16T23:16:40.316Z,99.90
2019-05-16T23:19:10.701Z,99.90
2019-05-16T23:21:40.781Z,99.90
2019-05-16T23:24:11.158Z,99.90
2019-05-16T23:26:41.564Z,99.90
2019-05-16T23:29:11.614Z,99.90
2019-05-16T23:31:42.384Z,99.90
2019-05-16T23:34:12.897Z,99.90
2019-05-16T23:36:43.721Z,99.90
2019-05-16T23:39:14.226Z,99.90
2019-05-16T23:41:44.292Z,99.90
2019-05-16T23:44:16.634Z,99.90
2019-05-16T23:46:47.212Z,99.90
2019-05-16T23:49:18.148Z,99.90
2019-05-16T23:51:50.169Z,99.90
2019-05-16T23:54:20.799Z,99.90
2019-05-16T23:56:51.525Z,99.90
2019-05-16T23:59:21.576Z,99.90
